sensor_id;sensor_type;location;lat;lon;timestamp;P1;durP1;ratioP1;P2;durP2;ratioP2
46348;SDS011;32057;47.830;19.046;2022-10-15T00:00:36;5.82;;;5.30;;
46348;SDS011;32057;47.830;19.046;2022-10-15T00:03:02;8.63;;;5.97;;
46348;SDS011;32057;47.830;19.046;2022-10-15T00:05:28;6.53;;;4.82;;
46348;SDS011;32057;47.830;19.046;2022-10-15T00:07:53;10.15;;;5.95;;
46348;SDS011;32057;47.830;19.046;2022-10-15T00:10:19;7.03;;;6.03;;
46348;SDS011;32057;47.830;19.046;2022-10-15T00:12:44;6.88;;;5.43;;
46348;SDS011;32057;47.830;19.046;2022-10-15T00:15:10;6.70;;;5.82;;
46348;SDS011;32057;47.830;19.046;2022-10-15T00:17:36;8.82;;;6.18;;
46348;SDS011;32057;47.830;19.046;2022-10-15T00:20:06;7.47;;;5.85;;
46348;SDS011;32057;47.830;19.046;2022-10-15T00:22:34;12.65;;;6.45;;
46348;SDS011;32057;47.830;19.046;2022-10-15T00:24:59;7.53;;;5.50;;
46348;SDS011;32057;47.830;19.046;2022-10-15T00:27:25;5.75;;;5.03;;
46348;SDS011;32057;47.830;19.046;2022-10-15T00:29:51;6.80;;;4.53;;
46348;SDS011;32057;47.830;19.046;2022-10-15T00:32:16;7.97;;;5.45;;
46348;SDS011;32057;47.830;19.046;2022-10-15T00:34:42;5.70;;;4.85;;
46348;SDS011;32057;47.830;19.046;2022-10-15T00:37:07;5.10;;;4.25;;
46348;SDS011;32057;47.830;19.046;2022-10-15T00:39:33;7.22;;;5.10;;
46348;SDS011;32057;47.830;19.046;2022-10-15T00:41:59;5.03;;;4.45;;
46348;SDS011;32057;47.830;19.046;2022-10-15T00:46:54;6.63;;;5.03;;
46348;SDS011;32057;47.830;19.046;2022-10-15T00:49:32;6.13;;;4.35;;
46348;SDS011;32057;47.830;19.046;2022-10-15T00:55:18;5.15;;;4.65;;
46348;SDS011;32057;47.830;19.046;2022-10-15T00:57:49;7.55;;;5.07;;
46348;SDS011;32057;47.830;19.046;2022-10-15T01:00:15;6.45;;;5.47;;
46348;SDS011;32057;47.830;19.046;2022-10-15T01:02:43;6.20;;;4.63;;
46348;SDS011;32057;47.830;19.046;2022-10-15T01:05:09;5.97;;;5.40;;
46348;SDS011;32057;47.830;19.046;2022-10-15T01:07:36;6.00;;;4.68;;
46348;SDS011;32057;47.830;19.046;2022-10-15T01:10:02;5.38;;;4.00;;
46348;SDS011;32057;47.830;19.046;2022-10-15T01:15:15;5.85;;;4.13;;
46348;SDS011;32057;47.830;19.046;2022-10-15T01:21:12;5.70;;;4.70;;
46348;SDS011;32057;47.830;19.046;2022-10-15T01:23:54;7.07;;;4.22;;
46348;SDS011;32057;47.830;19.046;2022-10-15T01:32:33;10.15;;;6.50;;
46348;SDS011;32057;47.830;19.046;2022-10-15T01:37:37;7.40;;;5.47;;
46348;SDS011;32057;47.830;19.046;2022-10-15T01:40:20;9.70;;;5.45;;
46348;SDS011;32057;47.830;19.046;2022-10-15T01:43:01;9.60;;;6.10;;
46348;SDS011;32057;47.830;19.046;2022-10-15T01:45:50;7.88;;;6.63;;
46348;SDS011;32057;47.830;19.046;2022-10-15T01:48:17;5.55;;;5.03;;
46348;SDS011;32057;47.830;19.046;2022-10-15T01:50:46;6.40;;;5.30;;
46348;SDS011;32057;47.830;19.046;2022-10-15T01:53:18;10.82;;;6.97;;
46348;SDS011;32057;47.830;19.046;2022-10-15T01:55:52;9.27;;;5.32;;
46348;SDS011;32057;47.830;19.046;2022-10-15T01:58:20;8.40;;;5.93;;
46348;SDS011;32057;47.830;19.046;2022-10-15T02:00:47;6.57;;;5.15;;
46348;SDS011;32057;47.830;19.046;2022-10-15T02:03:13;9.02;;;6.18;;
46348;SDS011;32057;47.830;19.046;2022-10-15T02:08:35;6.30;;;5.60;;
46348;SDS011;32057;47.830;19.046;2022-10-15T02:11:19;6.20;;;4.85;;
46348;SDS011;32057;47.830;19.046;2022-10-15T02:13:56;6.43;;;5.18;;
46348;SDS011;32057;47.830;19.046;2022-10-15T02:19:14;6.32;;;5.30;;
46348;SDS011;32057;47.830;19.046;2022-10-15T02:21:47;7.53;;;5.38;;
46348;SDS011;32057;47.830;19.046;2022-10-15T02:24:15;5.88;;;4.82;;
46348;SDS011;32057;47.830;19.046;2022-10-15T02:26:43;11.32;;;6.55;;
46348;SDS011;32057;47.830;19.046;2022-10-15T02:29:11;7.70;;;5.80;;
46348;SDS011;32057;47.830;19.046;2022-10-15T02:31:42;8.95;;;5.85;;
46348;SDS011;32057;47.830;19.046;2022-10-15T02:34:12;9.48;;;5.72;;
46348;SDS011;32057;47.830;19.046;2022-10-15T02:36:42;9.68;;;5.88;;
46348;SDS011;32057;47.830;19.046;2022-10-15T02:39:09;6.32;;;5.15;;
46348;SDS011;32057;47.830;19.046;2022-10-15T02:41:37;8.68;;;5.85;;
46348;SDS011;32057;47.830;19.046;2022-10-15T02:44:03;7.60;;;5.15;;
46348;SDS011;32057;47.830;19.046;2022-10-15T02:46:28;9.02;;;5.10;;
46348;SDS011;32057;47.830;19.046;2022-10-15T02:48:54;8.75;;;4.80;;
46348;SDS011;32057;47.830;19.046;2022-10-15T02:51:19;6.38;;;5.57;;
46348;SDS011;32057;47.830;19.046;2022-10-15T02:53:45;8.85;;;6.32;;
46348;SDS011;32057;47.830;19.046;2022-10-15T02:56:10;9.57;;;5.75;;
46348;SDS011;32057;47.830;19.046;2022-10-15T02:58:36;7.88;;;4.93;;
46348;SDS011;32057;47.830;19.046;2022-10-15T03:01:01;7.82;;;4.75;;
46348;SDS011;32057;47.830;19.046;2022-10-15T03:03:27;8.50;;;5.53;;
46348;SDS011;32057;47.830;19.046;2022-10-15T03:05:52;6.35;;;5.38;;
46348;SDS011;32057;47.830;19.046;2022-10-15T03:08:17;5.65;;;4.80;;
46348;SDS011;32057;47.830;19.046;2022-10-15T03:10:43;7.90;;;5.75;;
46348;SDS011;32057;47.830;19.046;2022-10-15T03:13:10;10.30;;;6.28;;
46348;SDS011;32057;47.830;19.046;2022-10-15T03:15:36;6.15;;;5.07;;
46348;SDS011;32057;47.830;19.046;2022-10-15T03:18:01;5.80;;;4.78;;
46348;SDS011;32057;47.830;19.046;2022-10-15T03:20:27;6.93;;;4.43;;
46348;SDS011;32057;47.830;19.046;2022-10-15T03:22:52;6.97;;;5.78;;
46348;SDS011;32057;47.830;19.046;2022-10-15T03:25:18;7.05;;;4.40;;
46348;SDS011;32057;47.830;19.046;2022-10-15T03:27:43;8.80;;;6.32;;
46348;SDS011;32057;47.830;19.046;2022-10-15T03:30:09;6.10;;;5.45;;
46348;SDS011;32057;47.830;19.046;2022-10-15T03:32:34;7.78;;;5.90;;
46348;SDS011;32057;47.830;19.046;2022-10-15T03:35:00;7.88;;;5.75;;
46348;SDS011;32057;47.830;19.046;2022-10-15T03:37:25;6.90;;;5.43;;
46348;SDS011;32057;47.830;19.046;2022-10-15T03:39:51;9.85;;;5.72;;
46348;SDS011;32057;47.830;19.046;2022-10-15T03:42:16;9.75;;;5.65;;
46348;SDS011;32057;47.830;19.046;2022-10-15T03:44:41;6.57;;;4.80;;
46348;SDS011;32057;47.830;19.046;2022-10-15T03:47:07;6.80;;;5.63;;
46348;SDS011;32057;47.830;19.046;2022-10-15T03:49:33;7.85;;;4.90;;
46348;SDS011;32057;47.830;19.046;2022-10-15T03:51:58;7.85;;;4.93;;
46348;SDS011;32057;47.830;19.046;2022-10-15T03:54:24;7.07;;;5.32;;
46348;SDS011;32057;47.830;19.046;2022-10-15T03:56:49;7.68;;;5.22;;
46348;SDS011;32057;47.830;19.046;2022-10-15T03:59:15;6.53;;;5.30;;
46348;SDS011;32057;47.830;19.046;2022-10-15T04:01:40;7.30;;;5.28;;
46348;SDS011;32057;47.830;19.046;2022-10-15T04:04:07;5.75;;;4.75;;
46348;SDS011;32057;47.830;19.046;2022-10-15T04:06:35;11.20;;;5.60;;
46348;SDS011;32057;47.830;19.046;2022-10-15T04:09:01;5.93;;;5.18;;
46348;SDS011;32057;47.830;19.046;2022-10-15T04:11:26;8.30;;;5.32;;
46348;SDS011;32057;47.830;19.046;2022-10-15T04:13:51;6.80;;;5.22;;
46348;SDS011;32057;47.830;19.046;2022-10-15T04:16:17;8.52;;;5.45;;
46348;SDS011;32057;47.830;19.046;2022-10-15T04:18:42;6.43;;;4.53;;
46348;SDS011;32057;47.830;19.046;2022-10-15T04:21:08;7.97;;;5.45;;
46348;SDS011;32057;47.830;19.046;2022-10-15T04:23:34;7.38;;;5.05;;
46348;SDS011;32057;47.830;19.046;2022-10-15T04:25:59;6.55;;;5.45;;
46348;SDS011;32057;47.830;19.046;2022-10-15T04:28:25;7.28;;;5.32;;
46348;SDS011;32057;47.830;19.046;2022-10-15T04:30:55;7.47;;;4.57;;
46348;SDS011;32057;47.830;19.046;2022-10-15T04:33:22;6.68;;;5.53;;
46348;SDS011;32057;47.830;19.046;2022-10-15T04:35:55;6.47;;;5.40;;
46348;SDS011;32057;47.830;19.046;2022-10-15T04:38:22;5.40;;;4.75;;
46348;SDS011;32057;47.830;19.046;2022-10-15T04:40:48;5.40;;;4.72;;
46348;SDS011;32057;47.830;19.046;2022-10-15T04:43:13;7.57;;;5.15;;
46348;SDS011;32057;47.830;19.046;2022-10-15T04:45:38;6.80;;;5.07;;
46348;SDS011;32057;47.830;19.046;2022-10-15T04:48:04;4.32;;;3.65;;
46348;SDS011;32057;47.830;19.046;2022-10-15T04:50:29;7.50;;;5.57;;
46348;SDS011;32057;47.830;19.046;2022-10-15T04:52:55;7.13;;;4.93;;
46348;SDS011;32057;47.830;19.046;2022-10-15T04:55:20;7.95;;;4.45;;
46348;SDS011;32057;47.830;19.046;2022-10-15T04:57:45;7.97;;;4.57;;
46348;SDS011;32057;47.830;19.046;2022-10-15T05:00:11;6.50;;;4.55;;
46348;SDS011;32057;47.830;19.046;2022-10-15T05:02:40;7.00;;;5.32;;
46348;SDS011;32057;47.830;19.046;2022-10-15T05:05:07;8.45;;;5.60;;
46348;SDS011;32057;47.830;19.046;2022-10-15T05:07:32;6.47;;;4.85;;
46348;SDS011;32057;47.830;19.046;2022-10-15T05:09:58;6.40;;;4.97;;
46348;SDS011;32057;47.830;19.046;2022-10-15T05:12:24;4.43;;;3.97;;
46348;SDS011;32057;47.830;19.046;2022-10-15T05:14:50;5.32;;;4.47;;
46348;SDS011;32057;47.830;19.046;2022-10-15T05:17:15;5.65;;;4.60;;
46348;SDS011;32057;47.830;19.046;2022-10-15T05:19:40;6.72;;;4.50;;
46348;SDS011;32057;47.830;19.046;2022-10-15T05:22:06;5.82;;;5.00;;
46348;SDS011;32057;47.830;19.046;2022-10-15T05:24:31;6.25;;;4.88;;
46348;SDS011;32057;47.830;19.046;2022-10-15T05:26:56;6.30;;;4.30;;
46348;SDS011;32057;47.830;19.046;2022-10-15T05:29:22;6.30;;;4.40;;
46348;SDS011;32057;47.830;19.046;2022-10-15T05:31:49;7.18;;;5.80;;
46348;SDS011;32057;47.830;19.046;2022-10-15T05:34:15;7.32;;;5.40;;
46348;SDS011;32057;47.830;19.046;2022-10-15T05:36:40;11.75;;;4.75;;
46348;SDS011;32057;47.830;19.046;2022-10-15T05:39:05;7.22;;;4.30;;
46348;SDS011;32057;47.830;19.046;2022-10-15T05:41:34;5.18;;;4.68;;
46348;SDS011;32057;47.830;19.046;2022-10-15T05:44:00;7.25;;;4.70;;
46348;SDS011;32057;47.830;19.046;2022-10-15T05:46:25;5.47;;;4.28;;
46348;SDS011;32057;47.830;19.046;2022-10-15T05:48:52;6.65;;;4.90;;
46348;SDS011;32057;47.830;19.046;2022-10-15T05:51:22;7.18;;;5.00;;
46348;SDS011;32057;47.830;19.046;2022-10-15T05:53:55;15.57;;;4.40;;
46348;SDS011;32057;47.830;19.046;2022-10-15T05:56:21;15.52;;;5.95;;
46348;SDS011;32057;47.830;19.046;2022-10-15T05:58:47;9.68;;;6.22;;
46348;SDS011;32057;47.830;19.046;2022-10-15T06:01:15;6.93;;;5.07;;
46348;SDS011;32057;47.830;19.046;2022-10-15T06:03:41;9.13;;;4.93;;
46348;SDS011;32057;47.830;19.046;2022-10-15T06:06:17;9.43;;;7.30;;
46348;SDS011;32057;47.830;19.046;2022-10-15T06:08:45;14.52;;;4.82;;
46348;SDS011;32057;47.830;19.046;2022-10-15T06:11:11;13.32;;;6.25;;
46348;SDS011;32057;47.830;19.046;2022-10-15T06:13:37;10.50;;;6.63;;
46348;SDS011;32057;47.830;19.046;2022-10-15T06:16:04;13.68;;;6.78;;
46348;SDS011;32057;47.830;19.046;2022-10-15T06:18:30;17.05;;;10.10;;
46348;SDS011;32057;47.830;19.046;2022-10-15T06:20:56;10.10;;;6.60;;
46348;SDS011;32057;47.830;19.046;2022-10-15T06:23:21;7.28;;;5.93;;
46348;SDS011;32057;47.830;19.046;2022-10-15T06:25:49;7.60;;;5.60;;
46348;SDS011;32057;47.830;19.046;2022-10-15T06:28:15;8.30;;;5.93;;
46348;SDS011;32057;47.830;19.046;2022-10-15T06:30:41;8.55;;;6.43;;
46348;SDS011;32057;47.830;19.046;2022-10-15T06:33:07;10.13;;;7.22;;
46348;SDS011;32057;47.830;19.046;2022-10-15T06:35:32;16.75;;;7.82;;
46348;SDS011;32057;47.830;19.046;2022-10-15T06:38:00;12.55;;;8.70;;
46348;SDS011;32057;47.830;19.046;2022-10-15T06:40:26;14.75;;;8.90;;
46348;SDS011;32057;47.830;19.046;2022-10-15T06:42:52;14.38;;;7.40;;
46348;SDS011;32057;47.830;19.046;2022-10-15T06:45:17;14.98;;;9.05;;
46348;SDS011;32057;47.830;19.046;2022-10-15T06:47:43;11.27;;;7.68;;
46348;SDS011;32057;47.830;19.046;2022-10-15T06:50:08;13.15;;;8.98;;
46348;SDS011;32057;47.830;19.046;2022-10-15T06:52:34;11.95;;;7.95;;
46348;SDS011;32057;47.830;19.046;2022-10-15T06:55:00;14.15;;;8.23;;
46348;SDS011;32057;47.830;19.046;2022-10-15T06:57:29;12.32;;;8.25;;
46348;SDS011;32057;47.830;19.046;2022-10-15T06:59:54;10.15;;;7.22;;
46348;SDS011;32057;47.830;19.046;2022-10-15T07:02:20;11.27;;;8.35;;
46348;SDS011;32057;47.830;19.046;2022-10-15T07:04:46;10.52;;;8.27;;
46348;SDS011;32057;47.830;19.046;2022-10-15T07:07:12;11.07;;;7.10;;
46348;SDS011;32057;47.830;19.046;2022-10-15T07:09:41;11.32;;;7.75;;
46348;SDS011;32057;47.830;19.046;2022-10-15T07:12:10;11.98;;;9.25;;
46348;SDS011;32057;47.830;19.046;2022-10-15T07:14:39;12.32;;;8.48;;
46348;SDS011;32057;47.830;19.046;2022-10-15T07:17:07;14.43;;;8.63;;
46348;SDS011;32057;47.830;19.046;2022-10-15T07:19:33;18.55;;;9.00;;
46348;SDS011;32057;47.830;19.046;2022-10-15T07:21:58;12.95;;;9.18;;
46348;SDS011;32057;47.830;19.046;2022-10-15T07:24:24;9.15;;;7.15;;
46348;SDS011;32057;47.830;19.046;2022-10-15T07:26:51;10.80;;;8.27;;
46348;SDS011;32057;47.830;19.046;2022-10-15T07:29:16;13.35;;;8.52;;
46348;SDS011;32057;47.830;19.046;2022-10-15T07:31:42;11.45;;;7.97;;
46348;SDS011;32057;47.830;19.046;2022-10-15T07:34:07;14.23;;;9.80;;
46348;SDS011;32057;47.830;19.046;2022-10-15T07:36:33;11.40;;;8.50;;
46348;SDS011;32057;47.830;19.046;2022-10-15T07:39:01;8.15;;;6.82;;
46348;SDS011;32057;47.830;19.046;2022-10-15T07:41:26;17.58;;;8.88;;
46348;SDS011;32057;47.830;19.046;2022-10-15T07:43:55;12.82;;;7.68;;
46348;SDS011;32057;47.830;19.046;2022-10-15T07:46:21;9.90;;;6.78;;
46348;SDS011;32057;47.830;19.046;2022-10-15T07:48:46;8.90;;;6.82;;
46348;SDS011;32057;47.830;19.046;2022-10-15T07:51:13;10.63;;;7.28;;
46348;SDS011;32057;47.830;19.046;2022-10-15T07:53:38;9.68;;;6.88;;
46348;SDS011;32057;47.830;19.046;2022-10-15T07:56:05;8.07;;;6.65;;
46348;SDS011;32057;47.830;19.046;2022-10-15T07:58:35;9.48;;;7.18;;
46348;SDS011;32057;47.830;19.046;2022-10-15T08:01:09;8.13;;;6.63;;
46348;SDS011;32057;47.830;19.046;2022-10-15T08:03:35;7.50;;;6.55;;
46348;SDS011;32057;47.830;19.046;2022-10-15T08:06:03;8.30;;;6.30;;
46348;SDS011;32057;47.830;19.046;2022-10-15T08:08:30;7.85;;;6.28;;
46348;SDS011;32057;47.830;19.046;2022-10-15T08:10:57;11.40;;;6.07;;
46348;SDS011;32057;47.830;19.046;2022-10-15T08:13:22;7.25;;;5.55;;
46348;SDS011;32057;47.830;19.046;2022-10-15T08:15:48;9.15;;;6.00;;
46348;SDS011;32057;47.830;19.046;2022-10-15T08:18:14;7.35;;;4.72;;
46348;SDS011;32057;47.830;19.046;2022-10-15T08:20:39;9.27;;;6.88;;
46348;SDS011;32057;47.830;19.046;2022-10-15T08:23:05;30.80;;;7.43;;
46348;SDS011;32057;47.830;19.046;2022-10-15T08:25:39;6.40;;;4.85;;
46348;SDS011;32057;47.830;19.046;2022-10-15T08:28:05;7.35;;;5.75;;
46348;SDS011;32057;47.830;19.046;2022-10-15T08:30:30;9.43;;;6.82;;
46348;SDS011;32057;47.830;19.046;2022-10-15T08:32:55;9.15;;;6.68;;
46348;SDS011;32057;47.830;19.046;2022-10-15T08:35:21;13.85;;;6.32;;
46348;SDS011;32057;47.830;19.046;2022-10-15T08:37:46;11.10;;;5.90;;
46348;SDS011;32057;47.830;19.046;2022-10-15T08:40:12;8.25;;;6.03;;
46348;SDS011;32057;47.830;19.046;2022-10-15T08:42:42;9.32;;;6.07;;
46348;SDS011;32057;47.830;19.046;2022-10-15T08:45:14;7.05;;;5.25;;
46348;SDS011;32057;47.830;19.046;2022-10-15T08:47:45;8.20;;;5.50;;
46348;SDS011;32057;47.830;19.046;2022-10-15T08:53:20;6.82;;;5.13;;
46348;SDS011;32057;47.830;19.046;2022-10-15T08:55:48;8.80;;;5.18;;
46348;SDS011;32057;47.830;19.046;2022-10-15T08:58:27;8.32;;;5.80;;
46348;SDS011;32057;47.830;19.046;2022-10-15T09:06:40;6.80;;;5.35;;
46348;SDS011;32057;47.830;19.046;2022-10-15T09:14:47;9.20;;;5.60;;
46348;SDS011;32057;47.830;19.046;2022-10-15T09:17:21;7.72;;;4.80;;
46348;SDS011;32057;47.830;19.046;2022-10-15T09:19:56;7.07;;;5.25;;
46348;SDS011;32057;47.830;19.046;2022-10-15T09:22:27;7.72;;;5.22;;
46348;SDS011;32057;47.830;19.046;2022-10-15T09:24:55;7.40;;;5.23;;
46348;SDS011;32057;47.830;19.046;2022-10-15T09:27:33;4.82;;;4.28;;
46348;SDS011;32057;47.830;19.046;2022-10-15T09:30:08;9.23;;;4.32;;
46348;SDS011;32057;47.830;19.046;2022-10-15T09:32:47;6.20;;;4.85;;
46348;SDS011;32057;47.830;19.046;2022-10-15T09:35:21;7.10;;;4.82;;
46348;SDS011;32057;47.830;19.046;2022-10-15T09:43:08;6.25;;;4.57;;
46348;SDS011;32057;47.830;19.046;2022-10-15T09:45:34;6.40;;;4.13;;
46348;SDS011;32057;47.830;19.046;2022-10-15T09:48:00;9.02;;;4.68;;
46348;SDS011;32057;47.830;19.046;2022-10-15T09:50:32;8.32;;;5.47;;
46348;SDS011;32057;47.830;19.046;2022-10-15T09:58:22;5.30;;;4.00;;
46348;SDS011;32057;47.830;19.046;2022-10-15T10:01:01;6.90;;;4.35;;
46348;SDS011;32057;47.830;19.046;2022-10-15T10:03:32;6.25;;;5.32;;
46348;SDS011;32057;47.830;19.046;2022-10-15T10:06:33;5.00;;;3.90;;
46348;SDS011;32057;47.830;19.046;2022-10-15T10:08:53;6.97;;;4.47;;
46348;SDS011;32057;47.830;19.046;2022-10-15T10:11:24;7.45;;;4.45;;
46348;SDS011;32057;47.830;19.046;2022-10-15T10:13:52;7.20;;;5.10;;
46348;SDS011;32057;47.830;19.046;2022-10-15T10:16:21;6.07;;;4.05;;
46348;SDS011;32057;47.830;19.046;2022-10-15T10:21:39;6.15;;;4.57;;
46348;SDS011;32057;47.830;19.046;2022-10-15T10:24:22;6.63;;;3.92;;
46348;SDS011;32057;47.830;19.046;2022-10-15T10:26:56;5.28;;;3.65;;
46348;SDS011;32057;47.830;19.046;2022-10-15T10:29:22;5.47;;;3.85;;
46348;SDS011;32057;47.830;19.046;2022-10-15T10:31:49;6.25;;;4.95;;
46348;SDS011;32057;47.830;19.046;2022-10-15T10:34:17;4.53;;;3.40;;
46348;SDS011;32057;47.830;19.046;2022-10-15T10:36:53;6.03;;;4.32;;
46348;SDS011;32057;47.830;19.046;2022-10-15T10:39:34;8.32;;;4.28;;
46348;SDS011;32057;47.830;19.046;2022-10-15T10:42:05;6.60;;;4.47;;
46348;SDS011;32057;47.830;19.046;2022-10-15T10:44:40;5.60;;;3.42;;
46348;SDS011;32057;47.830;19.046;2022-10-15T10:47:20;5.15;;;4.10;;
46348;SDS011;32057;47.830;19.046;2022-10-15T10:49:48;4.05;;;3.45;;
46348;SDS011;32057;47.830;19.046;2022-10-15T10:52:29;4.25;;;3.70;;
46348;SDS011;32057;47.830;19.046;2022-10-15T10:55:03;3.72;;;2.90;;
46348;SDS011;32057;47.830;19.046;2022-10-15T10:57:49;5.53;;;3.80;;
46348;SDS011;32057;47.830;19.046;2022-10-15T11:00:29;3.97;;;2.80;;
46348;SDS011;32057;47.830;19.046;2022-10-15T11:02:57;6.28;;;3.25;;
46348;SDS011;32057;47.830;19.046;2022-10-15T11:05:27;3.05;;;2.72;;
46348;SDS011;32057;47.830;19.046;2022-10-15T11:08:38;3.17;;;2.88;;
46348;SDS011;32057;47.830;19.046;2022-10-15T11:22:37;3.67;;;2.90;;
46348;SDS011;32057;47.830;19.046;2022-10-15T11:33:26;3.38;;;2.40;;
46348;SDS011;32057;47.830;19.046;2022-10-15T11:38:54;2.45;;;2.25;;
46348;SDS011;32057;47.830;19.046;2022-10-15T11:44:34;6.03;;;2.72;;
46348;SDS011;32057;47.830;19.046;2022-10-15T11:50:06;2.63;;;2.40;;
46348;SDS011;32057;47.830;19.046;2022-10-15T11:55:21;4.53;;;2.55;;
46348;SDS011;32057;47.830;19.046;2022-10-15T11:57:53;2.58;;;2.38;;
46348;SDS011;32057;47.830;19.046;2022-10-15T12:00:57;2.63;;;1.77;;
46348;SDS011;32057;47.830;19.046;2022-10-15T12:03:18;7.78;;;4.03;;
46348;SDS011;32057;47.830;19.046;2022-10-15T12:05:50;6.88;;;3.00;;
46348;SDS011;32057;47.830;19.046;2022-10-15T12:08:21;2.65;;;1.83;;
46348;SDS011;32057;47.830;19.046;2022-10-15T12:13:59;3.15;;;2.17;;
46348;SDS011;32057;47.830;19.046;2022-10-15T12:19:25;3.17;;;2.88;;
46348;SDS011;32057;47.830;19.046;2022-10-15T12:29:51;5.65;;;2.83;;
46348;SDS011;32057;47.830;19.046;2022-10-15T12:32:36;4.75;;;2.90;;
46348;SDS011;32057;47.830;19.046;2022-10-15T12:35:24;2.53;;;2.33;;
46348;SDS011;32057;47.830;19.046;2022-10-15T12:38:07;3.63;;;2.20;;
46348;SDS011;32057;47.830;19.046;2022-10-15T12:40:36;3.28;;;2.88;;
46348;SDS011;32057;47.830;19.046;2022-10-15T12:43:10;4.88;;;2.75;;
46348;SDS011;32057;47.830;19.046;2022-10-15T12:45:40;6.82;;;2.70;;
46348;SDS011;32057;47.830;19.046;2022-10-15T12:50:39;2.28;;;2.08;;
46348;SDS011;32057;47.830;19.046;2022-10-15T12:58:34;1.52;;;1.42;;
46348;SDS011;32057;47.830;19.046;2022-10-15T13:03:53;2.60;;;2.40;;
46348;SDS011;32057;47.830;19.046;2022-10-15T13:11:47;3.80;;;1.73;;
46348;SDS011;32057;47.830;19.046;2022-10-15T13:16:41;2.03;;;1.85;;
46348;SDS011;32057;47.830;19.046;2022-10-15T13:19:16;3.10;;;1.85;;
46348;SDS011;32057;47.830;19.046;2022-10-15T13:21:54;2.15;;;1.70;;
46348;SDS011;32057;47.830;19.046;2022-10-15T13:24:22;5.07;;;1.55;;
46348;SDS011;32057;47.830;19.046;2022-10-15T13:26:50;2.55;;;2.00;;
46348;SDS011;32057;47.830;19.046;2022-10-15T13:29:20;1.48;;;1.38;;
46348;SDS011;32057;47.830;19.046;2022-10-15T13:31:53;7.45;;;2.05;;
46348;SDS011;32057;47.830;19.046;2022-10-15T13:34:33;3.60;;;2.10;;
46348;SDS011;32057;47.830;19.046;2022-10-15T13:37:00;1.92;;;1.65;;
46348;SDS011;32057;47.830;19.046;2022-10-15T13:39:40;3.17;;;2.08;;
46348;SDS011;32057;47.830;19.046;2022-10-15T13:44:38;2.17;;;2.08;;
46348;SDS011;32057;47.830;19.046;2022-10-15T13:47:40;3.35;;;2.13;;
46348;SDS011;32057;47.830;19.046;2022-10-15T13:50:12;3.78;;;2.28;;
46348;SDS011;32057;47.830;19.046;2022-10-15T13:52:44;3.10;;;2.00;;
46348;SDS011;32057;47.830;19.046;2022-10-15T13:55:26;2.47;;;1.65;;
46348;SDS011;32057;47.830;19.046;2022-10-15T13:57:59;1.42;;;1.30;;
46348;SDS011;32057;47.830;19.046;2022-10-15T14:00:28;2.45;;;1.85;;
46348;SDS011;32057;47.830;19.046;2022-10-15T14:05:53;4.45;;;2.00;;
46348;SDS011;32057;47.830;19.046;2022-10-15T14:08:21;3.20;;;2.40;;
46348;SDS011;32057;47.830;19.046;2022-10-15T14:10:47;2.08;;;1.65;;
46348;SDS011;32057;47.830;19.046;2022-10-15T14:13:13;2.20;;;1.65;;
46348;SDS011;32057;47.830;19.046;2022-10-15T14:15:52;2.13;;;1.52;;
46348;SDS011;32057;47.830;19.046;2022-10-15T14:18:40;3.38;;;1.73;;
46348;SDS011;32057;47.830;19.046;2022-10-15T14:21:15;1.55;;;1.45;;
46348;SDS011;32057;47.830;19.046;2022-10-15T14:23:43;5.85;;;1.77;;
46348;SDS011;32057;47.830;19.046;2022-10-15T14:26:10;4.57;;;1.70;;
46348;SDS011;32057;47.830;19.046;2022-10-15T14:28:38;9.18;;;2.38;;
46348;SDS011;32057;47.830;19.046;2022-10-15T14:31:08;2.50;;;1.77;;
46348;SDS011;32057;47.830;19.046;2022-10-15T14:33:54;1.88;;;1.77;;
46348;SDS011;32057;47.830;19.046;2022-10-15T14:38:45;1.90;;;1.50;;
46348;SDS011;32057;47.830;19.046;2022-10-15T14:41:26;2.85;;;1.95;;
46348;SDS011;32057;47.830;19.046;2022-10-15T14:46:45;3.17;;;1.90;;
46348;SDS011;32057;47.830;19.046;2022-10-15T14:49:18;2.20;;;2.00;;
46348;SDS011;32057;47.830;19.046;2022-10-15T14:51:54;3.63;;;2.65;;
46348;SDS011;32057;47.830;19.046;2022-10-15T14:56:53;2.13;;;1.60;;
46348;SDS011;32057;47.830;19.046;2022-10-15T14:59:20;2.83;;;2.38;;
46348;SDS011;32057;47.830;19.046;2022-10-15T15:01:53;2.78;;;2.00;;
46348;SDS011;32057;47.830;19.046;2022-10-15T15:07:39;1.77;;;1.67;;
46348;SDS011;32057;47.830;19.046;2022-10-15T15:10:08;2.40;;;1.80;;
46348;SDS011;32057;47.830;19.046;2022-10-15T15:12:36;1.88;;;1.77;;
46348;SDS011;32057;47.830;19.046;2022-10-15T15:15:03;3.78;;;2.58;;
46348;SDS011;32057;47.830;19.046;2022-10-15T15:17:36;2.58;;;2.03;;
46348;SDS011;32057;47.830;19.046;2022-10-15T15:20:02;2.92;;;1.95;;
46348;SDS011;32057;47.830;19.046;2022-10-15T15:22:32;3.83;;;2.20;;
46348;SDS011;32057;47.830;19.046;2022-10-15T15:25:00;3.92;;;2.45;;
46348;SDS011;32057;47.830;19.046;2022-10-15T15:27:41;3.03;;;2.72;;
46348;SDS011;32057;47.830;19.046;2022-10-15T15:30:12;3.00;;;2.17;;
46348;SDS011;32057;47.830;19.046;2022-10-15T15:32:39;3.85;;;2.30;;
46348;SDS011;32057;47.830;19.046;2022-10-15T15:35:09;2.85;;;2.55;;
46348;SDS011;32057;47.830;19.046;2022-10-15T15:37:55;3.65;;;2.33;;
46348;SDS011;32057;47.830;19.046;2022-10-15T15:40:20;2.10;;;1.83;;
46348;SDS011;32057;47.830;19.046;2022-10-15T15:42:46;3.75;;;2.67;;
46348;SDS011;32057;47.830;19.046;2022-10-15T15:45:19;2.10;;;1.90;;
46348;SDS011;32057;47.830;19.046;2022-10-15T15:47:46;2.20;;;2.05;;
46348;SDS011;32057;47.830;19.046;2022-10-15T15:50:12;3.60;;;3.30;;
46348;SDS011;32057;47.830;19.046;2022-10-15T15:52:39;2.22;;;1.95;;
46348;SDS011;32057;47.830;19.046;2022-10-15T15:55:05;3.13;;;2.33;;
46348;SDS011;32057;47.830;19.046;2022-10-15T15:57:31;4.47;;;2.42;;
46348;SDS011;32057;47.830;19.046;2022-10-15T15:59:57;3.70;;;2.85;;
46348;SDS011;32057;47.830;19.046;2022-10-15T16:02:22;5.13;;;3.22;;
46348;SDS011;32057;47.830;19.046;2022-10-15T16:04:48;7.45;;;3.47;;
46348;SDS011;32057;47.830;19.046;2022-10-15T16:07:13;4.45;;;3.40;;
46348;SDS011;32057;47.830;19.046;2022-10-15T16:09:38;4.43;;;3.45;;
46348;SDS011;32057;47.830;19.046;2022-10-15T16:12:04;6.22;;;4.20;;
46348;SDS011;32057;47.830;19.046;2022-10-15T16:14:29;8.75;;;5.50;;
46348;SDS011;32057;47.830;19.046;2022-10-15T16:16:56;10.68;;;6.15;;
46348;SDS011;32057;47.830;19.046;2022-10-15T16:19:22;4.88;;;4.32;;
46348;SDS011;32057;47.830;19.046;2022-10-15T16:21:47;6.88;;;4.32;;
46348;SDS011;32057;47.830;19.046;2022-10-15T16:24:13;4.95;;;3.83;;
46348;SDS011;32057;47.830;19.046;2022-10-15T16:26:38;4.53;;;3.67;;
46348;SDS011;32057;47.830;19.046;2022-10-15T16:29:04;5.50;;;3.63;;
46348;SDS011;32057;47.830;19.046;2022-10-15T16:31:29;5.75;;;3.08;;
46348;SDS011;32057;47.830;19.046;2022-10-15T16:33:57;4.60;;;2.88;;
46348;SDS011;32057;47.830;19.046;2022-10-15T16:36:23;6.05;;;3.17;;
46348;SDS011;32057;47.830;19.046;2022-10-15T16:38:49;4.75;;;3.15;;
46348;SDS011;32057;47.830;19.046;2022-10-15T16:41:15;4.22;;;3.42;;
46348;SDS011;32057;47.830;19.046;2022-10-15T16:43:43;4.32;;;3.13;;
46348;SDS011;32057;47.830;19.046;2022-10-15T16:46:08;3.60;;;3.00;;
46348;SDS011;32057;47.830;19.046;2022-10-15T16:48:34;3.83;;;3.28;;
46348;SDS011;32057;47.830;19.046;2022-10-15T16:51:04;6.07;;;4.00;;
46348;SDS011;32057;47.830;19.046;2022-10-15T16:53:32;15.38;;;5.50;;
46348;SDS011;32057;47.830;19.046;2022-10-15T16:56:01;14.55;;;7.90;;
46348;SDS011;32057;47.830;19.046;2022-10-15T16:58:29;15.43;;;9.32;;